sensor_id;sensor_type;location;lat;lon;timestamp;pressure;altitude;pressure_sealevel;temperature;humidity
35694;BME280;21812;55.536;37.664;2022-07-04T00:00:27;99678.03;;;19.75;56.35
35694;BME280;21812;55.536;37.664;2022-07-04T00:02:53;99685.31;;;19.74;56.37
35694;BME280;21812;55.536;37.664;2022-07-04T00:05:19;99666.03;;;19.70;56.22
35694;BME280;21812;55.536;37.664;2022-07-04T00:07:47;99655.16;;;19.48;56.48
35694;BME280;21812;55.536;37.664;2022-07-04T00:10:17;99672.69;;;19.63;56.78
35694;BME280;21812;55.536;37.664;2022-07-04T00:12:46;99686.75;;;19.60;56.73
35694;BME280;21812;55.536;37.664;2022-07-04T00:15:14;99674.78;;;19.56;56.95
35694;BME280;21812;55.536;37.664;2022-07-04T00:17:40;99663.06;;;19.50;56.68
35694;BME280;21812;55.536;37.664;2022-07-04T00:20:07;99611.44;;;19.18;56.55
35694;BME280;21812;55.536;37.664;2022-07-04T00:22:34;99670.41;;;19.54;56.24
35694;BME280;21812;55.536;37.664;2022-07-04T00:24:59;99670.34;;;19.49;56.52
35694;BME280;21812;55.536;37.664;2022-07-04T00:27:25;99669.28;;;19.50;56.47
35694;BME280;21812;55.536;37.664;2022-07-04T00:29:53;99674.63;;;19.45;56.54
35694;BME280;21812;55.536;37.664;2022-07-04T00:32:21;99669.72;;;19.42;56.68
35694;BME280;21812;55.536;37.664;2022-07-04T00:34:47;99674.81;;;19.39;57.01
35694;BME280;21812;55.536;37.664;2022-07-04T00:37:13;99683.66;;;19.34;56.83
35694;BME280;21812;55.536;37.664;2022-07-04T00:39:39;99675.72;;;19.27;57.08
35694;BME280;21812;55.536;37.664;2022-07-04T00:42:05;99678.69;;;19.26;57.04
35694;BME280;21812;55.536;37.664;2022-07-04T00:44:31;99677.06;;;19.25;57.43
35694;BME280;21812;55.536;37.664;2022-07-04T00:46:57;99664.50;;;19.19;57.52
35694;BME280;21812;55.536;37.664;2022-07-04T00:49:23;99672.22;;;19.27;56.85
35694;BME280;21812;55.536;37.664;2022-07-04T00:51:49;99672.38;;;19.20;57.32
35694;BME280;21812;55.536;37.664;2022-07-04T00:54:16;99673.69;;;19.18;57.77
35694;BME280;21812;55.536;37.664;2022-07-04T00:56:46;99687.94;;;19.13;57.58
35694;BME280;21812;55.536;37.664;2022-07-04T00:59:12;99690.31;;;19.09;57.81
35694;BME280;21812;55.536;37.664;2022-07-04T01:01:38;99682.16;;;19.04;57.44
35694;BME280;21812;55.536;37.664;2022-07-04T01:04:05;99686.41;;;19.00;58.24
35694;BME280;21812;55.536;37.664;2022-07-04T01:06:32;99694.25;;;19.02;58.93
35694;BME280;21812;55.536;37.664;2022-07-04T01:08:59;99697.25;;;19.00;59.80
35694;BME280;21812;55.536;37.664;2022-07-04T01:11:25;99695.44;;;18.89;60.77
35694;BME280;21812;55.536;37.664;2022-07-04T01:13:50;99697.47;;;18.82;61.36
35694;BME280;21812;55.536;37.664;2022-07-04T01:16:16;99674.88;;;18.59;60.72
35694;BME280;21812;55.536;37.664;2022-07-04T01:18:42;99691.78;;;18.66;60.31
35694;BME280;21812;55.536;37.664;2022-07-04T01:21:08;99704.31;;;18.72;60.55
35694;BME280;21812;55.536;37.664;2022-07-04T01:23:39;99699.94;;;18.71;61.27
35694;BME280;21812;55.536;37.664;2022-07-04T01:26:06;99708.47;;;18.63;62.38
35694;BME280;21812;55.536;37.664;2022-07-04T01:28:32;99700.25;;;18.58;62.04
35694;BME280;21812;55.536;37.664;2022-07-04T01:30:58;99708.66;;;18.56;62.52
35694;BME280;21812;55.536;37.664;2022-07-04T01:33:24;99701.81;;;18.54;62.36
35694;BME280;21812;55.536;37.664;2022-07-04T01:35:50;99695.75;;;18.47;60.39
35694;BME280;21812;55.536;37.664;2022-07-04T01:38:16;99706.19;;;18.55;60.51
35694;BME280;21812;55.536;37.664;2022-07-04T01:40:42;99709.94;;;18.54;60.54
35694;BME280;21812;55.536;37.664;2022-07-04T01:43:07;99711.00;;;18.53;60.30
35694;BME280;21812;55.536;37.664;2022-07-04T01:45:33;99703.94;;;18.52;60.66
35694;BME280;21812;55.536;37.664;2022-07-04T01:48:04;99711.59;;;18.55;60.63
35694;BME280;21812;55.536;37.664;2022-07-04T01:50:30;99706.19;;;18.55;60.39
35694;BME280;21812;55.536;37.664;2022-07-04T01:52:55;99711.00;;;18.53;60.43
35694;BME280;21812;55.536;37.664;2022-07-04T01:55:21;99713.78;;;18.58;60.74
35694;BME280;21812;55.536;37.664;2022-07-04T01:57:47;99710.50;;;18.56;61.03
35694;BME280;21812;55.536;37.664;2022-07-04T02:00:13;99713.72;;;18.53;60.99
35694;BME280;21812;55.536;37.664;2022-07-04T02:02:57;99716.50;;;18.58;60.79
35694;BME280;21812;55.536;37.664;2022-07-04T02:05:25;99712.16;;;18.57;60.92
35694;BME280;21812;55.536;37.664;2022-07-04T02:07:51;99714.63;;;18.59;61.47
35694;BME280;21812;55.536;37.664;2022-07-04T02:10:17;99720.38;;;18.62;61.90
35694;BME280;21812;55.536;37.664;2022-07-04T02:12:43;99722.34;;;18.67;62.41
35694;BME280;21812;55.536;37.664;2022-07-04T02:15:34;99699.13;;;18.54;62.17
35694;BME280;21812;55.536;37.664;2022-07-04T02:18:05;99688.47;;;18.47;63.72
35694;BME280;21812;55.536;37.664;2022-07-04T02:20:32;99727.16;;;18.65;62.93
35694;BME280;21812;55.536;37.664;2022-07-04T02:22:58;99720.72;;;18.66;63.08
35694;BME280;21812;55.536;37.664;2022-07-04T02:25:24;99724.38;;;18.60;63.18
35694;BME280;21812;55.536;37.664;2022-07-04T02:27:54;99730.44;;;18.67;63.53
35694;BME280;21812;55.536;37.664;2022-07-04T02:30:23;99723.25;;;18.72;63.10
35694;BME280;21812;55.536;37.664;2022-07-04T02:32:49;99731.13;;;18.74;62.91
35694;BME280;21812;55.536;37.664;2022-07-04T02:35:15;99730.84;;;18.87;63.07
35694;BME280;21812;55.536;37.664;2022-07-04T02:37:41;99734.13;;;18.89;62.44
35694;BME280;21812;55.536;37.664;2022-07-04T02:40:10;99731.81;;;18.98;62.56
35694;BME280;21812;55.536;37.664;2022-07-04T02:42:36;99732.09;;;18.97;62.58
35694;BME280;21812;55.536;37.664;2022-07-04T02:45:03;99739.03;;;19.09;62.52
35694;BME280;21812;55.536;37.664;2022-07-04T02:47:30;99738.09;;;19.16;62.13
35694;BME280;21812;55.536;37.664;2022-07-04T02:49:55;99735.44;;;19.21;61.97
35694;BME280;21812;55.536;37.664;2022-07-04T02:52:21;99729.63;;;19.29;61.60
35694;BME280;21812;55.536;37.664;2022-07-04T02:54:47;99730.19;;;19.31;61.50
35694;BME280;21812;55.536;37.664;2022-07-04T02:57:14;99725.44;;;19.38;60.79
35694;BME280;21812;55.536;37.664;2022-07-04T02:59:40;99721.78;;;19.49;59.58
35694;BME280;21812;55.536;37.664;2022-07-04T03:02:05;99722.75;;;19.60;61.26
35694;BME280;21812;55.536;37.664;2022-07-04T03:04:31;99725.56;;;19.65;59.69
35694;BME280;21812;55.536;37.664;2022-07-04T03:06:57;99727.50;;;19.70;60.35
35694;BME280;21812;55.536;37.664;2022-07-04T03:09:22;99731.38;;;19.74;60.02
35694;BME280;21812;55.536;37.664;2022-07-04T03:11:48;99725.72;;;19.76;58.11
35694;BME280;21812;55.536;37.664;2022-07-04T03:14:14;99725.34;;;19.89;56.86
35694;BME280;21812;55.536;37.664;2022-07-04T03:16:39;99723.84;;;19.98;57.00
35694;BME280;21812;55.536;37.664;2022-07-04T03:19:05;99726.88;;;20.02;57.19
35694;BME280;21812;55.536;37.664;2022-07-04T03:21:31;99725.78;;;20.03;56.88
35694;BME280;21812;55.536;37.664;2022-07-04T03:23:56;99736.19;;;20.11;57.00
35694;BME280;21812;55.536;37.664;2022-07-04T03:26:27;99700.00;;;20.00;57.22
35694;BME280;21812;55.536;37.664;2022-07-04T03:28:53;99732.00;;;20.25;57.34
35694;BME280;21812;55.536;37.664;2022-07-04T03:31:19;99735.28;;;20.27;56.56
35694;BME280;21812;55.536;37.664;2022-07-04T03:33:45;99735.84;;;20.29;57.63
35694;BME280;21812;55.536;37.664;2022-07-04T03:36:11;99733.72;;;20.31;57.93
35694;BME280;21812;55.536;37.664;2022-07-04T03:38:36;99724.44;;;20.27;57.25
35694;BME280;21812;55.536;37.664;2022-07-04T03:41:02;99736.47;;;20.37;57.16
35694;BME280;21812;55.536;37.664;2022-07-04T03:43:28;99734.16;;;20.45;56.94
35694;BME280;21812;55.536;37.664;2022-07-04T03:45:53;99720.34;;;20.47;56.72
35694;BME280;21812;55.536;37.664;2022-07-04T03:48:19;99715.47;;;20.49;56.41
35694;BME280;21812;55.536;37.664;2022-07-04T03:50:46;99728.97;;;20.66;56.52
35694;BME280;21812;55.536;37.664;2022-07-04T03:53:11;99727.13;;;20.72;56.60
35694;BME280;21812;55.536;37.664;2022-07-04T03:55:38;99726.84;;;20.73;56.79
35694;BME280;21812;55.536;37.664;2022-07-04T03:58:04;99730.69;;;20.77;56.67
35694;BME280;21812;55.536;37.664;2022-07-04T04:00:31;99743.31;;;20.94;56.49
35694;BME280;21812;55.536;37.664;2022-07-04T04:02:57;99738.44;;;20.96;56.07
35694;BME280;21812;55.536;37.664;2022-07-04T04:05:23;99736.16;;;21.15;56.48
35694;BME280;21812;55.536;37.664;2022-07-04T04:07:58;99747.13;;;21.25;56.43
35694;BME280;21812;55.536;37.664;2022-07-04T04:10:27;99725.56;;;21.13;56.05
35694;BME280;21812;55.536;37.664;2022-07-04T04:12:53;99743.66;;;21.40;55.17
35694;BME280;21812;55.536;37.664;2022-07-04T04:15:19;99733.09;;;21.43;55.19
35694;BME280;21812;55.536;37.664;2022-07-04T04:17:45;99735.94;;;21.54;55.57
35694;BME280;21812;55.536;37.664;2022-07-04T04:20:11;99732.97;;;21.55;55.80
35694;BME280;21812;55.536;37.664;2022-07-04T04:22:37;99736.50;;;21.56;55.44
35694;BME280;21812;55.536;37.664;2022-07-04T04:25:03;99733.53;;;21.57;56.11
35694;BME280;21812;55.536;37.664;2022-07-04T04:27:29;99737.63;;;21.65;56.22
35694;BME280;21812;55.536;37.664;2022-07-04T04:29:57;99728.94;;;21.68;56.12
35694;BME280;21812;55.536;37.664;2022-07-04T04:32:23;99738.19;;;21.72;56.49
35694;BME280;21812;55.536;37.664;2022-07-04T04:34:48;99731.69;;;21.73;56.57
35694;BME280;21812;55.536;37.664;2022-07-04T04:37:14;99728.94;;;21.68;56.99
35694;BME280;21812;55.536;37.664;2022-07-04T04:39:42;99735.25;;;21.79;56.88
35694;BME280;21812;55.536;37.664;2022-07-04T04:42:08;99733.38;;;21.84;56.96
35694;BME280;21812;55.536;37.664;2022-07-04T04:44:33;99734.50;;;21.89;56.97
35694;BME280;21812;55.536;37.664;2022-07-04T04:46:59;99699.91;;;21.69;57.20
35694;BME280;21812;55.536;37.664;2022-07-04T04:49:24;99731.56;;;21.95;56.37
35694;BME280;21812;55.536;37.664;2022-07-04T04:51:50;99741.09;;;22.03;56.53
35694;BME280;21812;55.536;37.664;2022-07-04T04:54:19;99738.38;;;22.08;56.32
35694;BME280;21812;55.536;37.664;2022-07-04T04:56:44;99662.09;;;21.62;56.72
35694;BME280;21812;55.536;37.664;2022-07-04T04:59:10;99738.41;;;22.13;56.56
35694;BME280;21812;55.536;37.664;2022-07-04T05:01:36;99740.59;;;22.16;57.14
35694;BME280;21812;55.536;37.664;2022-07-04T05:04:01;99737.38;;;22.24;57.32
35694;BME280;21812;55.536;37.664;2022-07-04T05:06:27;99745.84;;;22.28;55.70
35694;BME280;21812;55.536;37.664;2022-07-04T05:08:53;99742.56;;;22.31;56.09
35694;BME280;21812;55.536;37.664;2022-07-04T05:11:18;99739.59;;;22.33;55.44
35694;BME280;21812;55.536;37.664;2022-07-04T05:13:44;99730.34;;;22.34;55.41
35694;BME280;21812;55.536;37.664;2022-07-04T05:16:10;99744.53;;;22.46;56.03
35694;BME280;21812;55.536;37.664;2022-07-04T05:18:38;99733.63;;;22.46;56.01
35694;BME280;21812;55.536;37.664;2022-07-04T05:21:04;99738.56;;;22.49;55.92
35694;BME280;21812;55.536;37.664;2022-07-04T05:23:30;99739.13;;;22.56;55.23
35694;BME280;21812;55.536;37.664;2022-07-04T05:25:58;99735.59;;;22.61;55.03
35694;BME280;21812;55.536;37.664;2022-07-04T05:28:23;99736.94;;;22.63;55.28
35694;BME280;21812;55.536;37.664;2022-07-04T05:30:49;99733.41;;;22.63;54.87
35694;BME280;21812;55.536;37.664;2022-07-04T05:33:15;99736.44;;;22.72;55.09
35694;BME280;21812;55.536;37.664;2022-07-04T05:35:40;99741.84;;;22.77;54.62
35694;BME280;21812;55.536;37.664;2022-07-04T05:38:06;99743.22;;;22.84;54.77
35694;BME280;21812;55.536;37.664;2022-07-04T05:40:32;99731.53;;;22.89;54.54
35694;BME280;21812;55.536;37.664;2022-07-04T05:42:57;99729.88;;;22.88;54.39
35694;BME280;21812;55.536;37.664;2022-07-04T05:45:23;99737.81;;;23.00;53.70
35694;BME280;21812;55.536;37.664;2022-07-04T05:47:49;99728.53;;;23.01;53.35
35694;BME280;21812;55.536;37.664;2022-07-04T05:50:15;99729.34;;;23.01;53.32
35694;BME280;21812;55.536;37.664;2022-07-04T05:52:40;99731.59;;;23.10;54.31
35694;BME280;21812;55.536;37.664;2022-07-04T05:55:06;99732.94;;;23.17;53.27
35694;BME280;21812;55.536;37.664;2022-07-04T05:57:33;99737.81;;;23.20;52.22
35694;BME280;21812;55.536;37.664;2022-07-04T05:59:59;99731.53;;;23.30;51.49
35694;BME280;21812;55.536;37.664;2022-07-04T06:02:25;99737.25;;;23.34;51.82
35694;BME280;21812;55.536;37.664;2022-07-04T06:04:50;99738.06;;;23.45;51.26
35694;BME280;21812;55.536;37.664;2022-07-04T06:07:16;99728.56;;;23.37;51.66
35694;BME280;21812;55.536;37.664;2022-07-04T06:09:42;99732.09;;;23.48;52.26
35694;BME280;21812;55.536;37.664;2022-07-04T06:12:09;99734.81;;;23.42;51.98
35694;BME280;21812;55.536;37.664;2022-07-04T06:14:35;99733.94;;;23.68;50.50
35694;BME280;21812;55.536;37.664;2022-07-04T06:17:01;99732.28;;;23.72;49.91
35694;BME280;21812;55.536;37.664;2022-07-04T06:19:26;99737.19;;;23.75;49.95
35694;BME280;21812;55.536;37.664;2022-07-04T06:21:52;99735.56;;;23.74;50.08
35694;BME280;21812;55.536;37.664;2022-07-04T06:24:18;99739.66;;;23.76;50.83
35694;BME280;21812;55.536;37.664;2022-07-04T06:26:43;99732.03;;;23.78;51.07
35694;BME280;21812;55.536;37.664;2022-07-04T06:29:09;99732.84;;;23.84;50.81
35694;BME280;21812;55.536;37.664;2022-07-04T06:31:35;99737.44;;;23.89;49.72
35694;BME280;21812;55.536;37.664;2022-07-04T06:34:00;99734.44;;;23.90;49.88
35694;BME280;21812;55.536;37.664;2022-07-04T06:36:45;99730.88;;;24.00;50.01
35694;BME280;21812;55.536;37.664;2022-07-04T06:39:11;99738.25;;;23.99;50.42
35694;BME280;21812;55.536;37.664;2022-07-04T06:41:37;99728.13;;;24.00;49.59
35694;BME280;21812;55.536;37.664;2022-07-04T06:44:03;99740.13;;;24.04;49.99
35694;BME280;21812;55.536;37.664;2022-07-04T06:46:29;99735.72;;;24.08;50.32
35694;BME280;21812;55.536;37.664;2022-07-04T06:48:55;99739.84;;;24.11;50.13
35694;BME280;21812;55.536;37.664;2022-07-04T06:51:22;99733.00;;;24.13;49.42
35694;BME280;21812;55.536;37.664;2022-07-04T06:53:48;99732.97;;;24.18;48.71
35694;BME280;21812;55.536;37.664;2022-07-04T06:56:14;99726.66;;;24.28;48.52
35694;BME280;21812;55.536;37.664;2022-07-04T06:58:40;99728.56;;;24.28;48.61
35694;BME280;21812;55.536;37.664;2022-07-04T07:01:05;99718.88;;;24.51;48.62
35694;BME280;21812;55.536;37.664;2022-07-04T07:03:32;99727.78;;;24.72;47.21
35694;BME280;21812;55.536;37.664;2022-07-04T07:06:01;99729.16;;;24.69;47.05
35694;BME280;21812;55.536;37.664;2022-07-04T07:08:28;99719.56;;;24.77;47.56
35694;BME280;21812;55.536;37.664;2022-07-04T07:10:55;99730.72;;;24.81;46.23
35694;BME280;21812;55.536;37.664;2022-07-04T07:13:21;99723.38;;;24.76;48.27
35694;BME280;21812;55.536;37.664;2022-07-04T07:15:47;99721.53;;;25.06;47.34
35694;BME280;21812;55.536;37.664;2022-07-04T07:18:12;99723.34;;;25.15;46.91
35694;BME280;21812;55.536;37.664;2022-07-04T07:20:41;99720.94;;;25.09;47.06
35694;BME280;21812;55.536;37.664;2022-07-04T07:23:06;99719.59;;;25.06;46.69
35694;BME280;21812;55.536;37.664;2022-07-04T07:25:32;99716.59;;;25.08;47.02
35694;BME280;21812;55.536;37.664;2022-07-04T07:27:58;99724.56;;;25.33;46.77
35694;BME280;21812;55.536;37.664;2022-07-04T07:30:24;99719.38;;;25.32;46.07
35694;BME280;21812;55.536;37.664;2022-07-04T07:32:49;99723.00;;;25.27;46.13
35694;BME280;21812;55.536;37.664;2022-07-04T07:35:15;99709.81;;;25.34;45.28
35694;BME280;21812;55.536;37.664;2022-07-04T07:37:41;99708.81;;;25.25;46.04
35694;BME280;21812;55.536;37.664;2022-07-04T07:40:08;99715.66;;;25.23;46.50
35694;BME280;21812;55.536;37.664;2022-07-04T07:42:33;99718.66;;;25.21;46.75
35694;BME280;21812;55.536;37.664;2022-07-04T07:44:59;99715.44;;;25.14;45.90
35694;BME280;21812;55.536;37.664;2022-07-04T07:47:25;99718.72;;;25.11;45.71
35694;BME280;21812;55.536;37.664;2022-07-04T07:49:51;99711.00;;;25.23;45.48
35694;BME280;21812;55.536;37.664;2022-07-04T07:52:19;99699.97;;;25.33;44.74
35694;BME280;21812;55.536;37.664;2022-07-04T07:54:45;99712.78;;;25.91;43.73
35694;BME280;21812;55.536;37.664;2022-07-04T07:57:10;99712.44;;;26.17;43.39
35694;BME280;21812;55.536;37.664;2022-07-04T07:59:36;99713.72;;;26.01;42.42
35694;BME280;21812;55.536;37.664;2022-07-04T08:02:02;99711.91;;;25.91;43.32
35694;BME280;21812;55.536;37.664;2022-07-04T08:04:27;99723.75;;;26.10;42.69
35694;BME280;21812;55.536;37.664;2022-07-04T08:07:00;99713.28;;;25.93;44.22
35694;BME280;21812;55.536;37.664;2022-07-04T08:09:26;99715.34;;;25.78;44.69
35694;BME280;21812;55.536;37.664;2022-07-04T08:11:52;99719.66;;;25.84;44.79
35694;BME280;21812;55.536;37.664;2022-07-04T08:14:17;99719.50;;;25.99;45.20
35694;BME280;21812;55.536;37.664;2022-07-04T08:16:43;99717.94;;;25.93;43.89
35694;BME280;21812;55.536;37.664;2022-07-04T08:19:09;99728.25;;;26.01;43.66
35694;BME280;21812;55.536;37.664;2022-07-04T08:21:34;99725.75;;;26.05;42.03
35694;BME280;21812;55.536;37.664;2022-07-04T08:24:00;99709.09;;;26.01;42.00
35694;BME280;21812;55.536;37.664;2022-07-04T08:26:26;99715.94;;;25.99;42.38
35694;BME280;21812;55.536;37.664;2022-07-04T08:28:52;99724.75;;;25.96;42.97
35694;BME280;21812;55.536;37.664;2022-07-04T08:31:20;99719.56;;;25.94;42.65
35694;BME280;21812;55.536;37.664;2022-07-04T08:33:46;99718.03;;;25.83;42.40
35694;BME280;21812;55.536;37.664;2022-07-04T08:36:13;99715.81;;;25.85;41.70
35694;BME280;21812;55.536;37.664;2022-07-04T08:38:39;99716.47;;;26.01;41.76
35694;BME280;21812;55.536;37.664;2022-07-04T08:41:04;99705.31;;;25.97;41.57
35694;BME280;21812;55.536;37.664;2022-07-04T08:43:31;99718.91;;;26.02;42.52
35694;BME280;21812;55.536;37.664;2022-07-04T08:46:00;99715.31;;;26.07;41.96
35694;BME280;21812;55.536;37.664;2022-07-04T08:48:30;99719.03;;;26.16;41.57
35694;BME280;21812;55.536;37.664;2022-07-04T08:51:04;99693.03;;;25.94;41.46
35694;BME280;21812;55.536;37.664;2022-07-04T08:53:37;99713.53;;;25.97;40.84
35694;BME280;21812;55.536;37.664;2022-07-04T08:56:05;99688.47;;;26.09;40.06
35694;BME280;21812;55.536;37.664;2022-07-04T08:58:51;99702.75;;;26.25;41.14
35694;BME280;21812;55.536;37.664;2022-07-04T09:01:17;99702.97;;;26.28;41.45
35694;BME280;21812;55.536;37.664;2022-07-04T09:03:44;99704.25;;;26.36;41.34
35694;BME280;21812;55.536;37.664;2022-07-04T09:06:12;99693.56;;;26.34;40.79
35694;BME280;21812;55.536;37.664;2022-07-04T09:08:39;99714.53;;;26.82;39.69
35694;BME280;21812;55.536;37.664;2022-07-04T09:11:05;99701.72;;;26.78;38.26
35694;BME280;21812;55.536;37.664;2022-07-04T09:13:32;99709.38;;;26.81;38.64
35694;BME280;21812;55.536;37.664;2022-07-04T09:15:59;99705.31;;;26.92;36.78
35694;BME280;21812;55.536;37.664;2022-07-04T09:18:32;99692.75;;;27.38;37.54
35694;BME280;21812;55.536;37.664;2022-07-04T09:20:59;99705.97;;;27.36;37.48
35694;BME280;21812;55.536;37.664;2022-07-04T09:23:27;99671.09;;;27.22;38.10
35694;BME280;21812;55.536;37.664;2022-07-04T09:26:13;99696.84;;;27.54;39.11
35694;BME280;21812;55.536;37.664;2022-07-04T09:28:53;99676.06;;;27.53;39.48
35694;BME280;21812;55.536;37.664;2022-07-04T09:31:20;99683.56;;;27.75;37.05
35694;BME280;21812;55.536;37.664;2022-07-04T09:33:53;99690.25;;;27.83;37.69
35694;BME280;21812;55.536;37.664;2022-07-04T09:36:27;99690.69;;;27.90;38.57
35694;BME280;21812;55.536;37.664;2022-07-04T09:39:12;99688.13;;;28.07;38.51
35694;BME280;21812;55.536;37.664;2022-07-04T09:44:46;99678.44;;;28.24;37.57
35694;BME280;21812;55.536;37.664;2022-07-04T09:47:25;99674.84;;;28.37;38.10
35694;BME280;21812;55.536;37.664;2022-07-04T09:52:29;99675.13;;;28.72;37.16
35694;BME280;21812;55.536;37.664;2022-07-04T09:55:03;99686.13;;;28.72;35.21
35694;BME280;21812;55.536;37.664;2022-07-04T09:57:31;99671.50;;;28.85;33.95
35694;BME280;21812;55.536;37.664;2022-07-04T10:00:16;99676.50;;;29.06;34.25
35694;BME280;21812;55.536;37.664;2022-07-04T10:02:42;99671.72;;;29.20;33.10
35694;BME280;21812;55.536;37.664;2022-07-04T10:05:08;99649.50;;;29.39;34.61
35694;BME280;21812;55.536;37.664;2022-07-04T10:07:34;99662.69;;;29.60;35.18
35694;BME280;21812;55.536;37.664;2022-07-04T10:10:56;99661.25;;;29.71;33.42
35694;BME280;21812;55.536;37.664;2022-07-04T10:13:14;99662.97;;;29.98;34.38
35694;BME280;21812;55.536;37.664;2022-07-04T10:15:42;99627.84;;;30.04;34.01
35694;BME280;21812;55.536;37.664;2022-07-04T10:18:08;99654.94;;;30.37;34.00
35694;BME280;21812;55.536;37.664;2022-07-04T10:20:35;99648.44;;;30.42;33.17
35694;BME280;21812;55.536;37.664;2022-07-04T10:23:02;99657.84;;;30.58;32.01
35694;BME280;21812;55.536;37.664;2022-07-04T10:25:28;99646.50;;;30.51;32.68
35694;BME280;21812;55.536;37.664;2022-07-04T10:27:55;99639.97;;;30.73;32.60
35694;BME280;21812;55.536;37.664;2022-07-04T10:30:26;99652.63;;;30.83;32.39
35694;BME280;21812;55.536;37.664;2022-07-04T10:32:53;99619.09;;;30.72;31.96
35694;BME280;21812;55.536;37.664;2022-07-04T10:35:46;99646.31;;;30.91;31.60
35694;BME280;21812;55.536;37.664;2022-07-04T10:38:12;99643.63;;;31.21;32.45
35694;BME280;21812;55.536;37.664;2022-07-04T10:48:51;99637.56;;;31.95;33.14
35694;BME280;21812;55.536;37.664;2022-07-04T10:51:46;99630.91;;;32.18;31.60
35694;BME280;21812;55.536;37.664;2022-07-04T10:54:16;99640.88;;;32.10;30.30
35694;BME280;21812;55.536;37.664;2022-07-04T10:56:46;99638.88;;;31.30;31.64
35694;BME280;21812;55.536;37.664;2022-07-04T10:59:14;99633.19;;;30.70;33.17
35694;BME280;21812;55.536;37.664;2022-07-04T11:02:37;99607.75;;;30.21;33.46
35694;BME280;21812;55.536;37.664;2022-07-04T11:18:03;99607.72;;;32.85;30.12
35694;BME280;21812;55.536;37.664;2022-07-04T11:20:32;99608.09;;;32.96;30.24
35694;BME280;21812;55.536;37.664;2022-07-04T11:25:37;99608.81;;;33.30;30.59
35694;BME280;21812;55.536;37.664;2022-07-04T11:28:23;99604.69;;;33.61;30.01
35694;BME280;21812;55.536;37.664;2022-07-04T11:30:53;99605.47;;;33.86;29.63
35694;BME280;21812;55.536;37.664;2022-07-04T11:33:24;99610.22;;;34.14;29.40
35694;BME280;21812;55.536;37.664;2022-07-04T11:38:59;99604.91;;;33.31;28.94
35694;BME280;21812;55.536;37.664;2022-07-04T11:41:32;99611.81;;;33.13;29.06
35694;BME280;21812;55.536;37.664;2022-07-04T11:44:18;99551.69;;;33.34;27.95
35694;BME280;21812;55.536;37.664;2022-07-04T11:47:10;99599.34;;;32.94;28.91
35694;BME280;21812;55.536;37.664;2022-07-04T11:49:42;99570.84;;;32.48;28.72
35694;BME280;21812;55.536;37.664;2022-07-04T11:52:08;99603.13;;;32.02;30.14
35694;BME280;21812;55.536;37.664;2022-07-04T11:54:34;99606.34;;;32.04;30.12
35694;BME280;21812;55.536;37.664;2022-07-04T11:57:14;99604.13;;;32.72;29.10
35694;BME280;21812;55.536;37.664;2022-07-04T11:59:41;99586.03;;;33.21;28.68
35694;BME280;21812;55.536;37.664;2022-07-04T12:02:12;99596.00;;;32.88;29.86
35694;BME280;21812;55.536;37.664;2022-07-04T12:04:38;99594.31;;;32.42;29.99
35694;BME280;21812;55.536;37.664;2022-07-04T12:07:12;99576.09;;;33.07;28.67
35694;BME280;21812;55.536;37.664;2022-07-04T12:09:39;99591.56;;;33.33;28.10
35694;BME280;21812;55.536;37.664;2022-07-04T12:12:06;99584.41;;;33.44;28.36
35694;BME280;21812;55.536;37.664;2022-07-04T12:14:32;99579.19;;;33.80;27.66
35694;BME280;21812;55.536;37.664;2022-07-04T12:17:17;99552.25;;;34.33;26.83
35694;BME280;21812;55.536;37.664;2022-07-04T12:19:56;99559.69;;;34.73;26.50
35694;BME280;21812;55.536;37.664;2022-07-04T12:22:32;99583.66;;;35.13;27.05
35694;BME280;21812;55.536;37.664;2022-07-04T12:24:59;99577.53;;;35.39;26.45
35694;BME280;21812;55.536;37.664;2022-07-04T12:27:26;99571.41;;;35.30;25.74
35694;BME280;21812;55.536;37.664;2022-07-04T12:29:54;99568.09;;;35.60;26.28
35694;BME280;21812;55.536;37.664;2022-07-04T12:32:21;99562.50;;;35.40;25.08
35694;BME280;21812;55.536;37.664;2022-07-04T12:34:47;99556.53;;;35.38;24.77
35694;BME280;21812;55.536;37.664;2022-07-04T12:37:14;99561.38;;;35.41;25.03
35694;BME280;21812;55.536;37.664;2022-07-04T12:39:41;99572.06;;;34.63;26.00
35694;BME280;21812;55.536;37.664;2022-07-04T12:42:17;99567.09;;;33.72;27.01
35694;BME280;21812;55.536;37.664;2022-07-04T12:44:46;99560.28;;;33.82;26.66
35694;BME280;21812;55.536;37.664;2022-07-04T12:47:15;99566.53;;;33.29;28.05
35694;BME280;21812;55.536;37.664;2022-07-04T12:49:46;99519.97;;;32.49;28.45
35694;BME280;21812;55.536;37.664;2022-07-04T12:52:16;99562.44;;;32.65;29.54
35694;BME280;21812;55.536;37.664;2022-07-04T12:54:43;99560.09;;;32.34;30.40
35694;BME280;21812;55.536;37.664;2022-07-04T12:57:14;99556.56;;;32.46;29.37
35694;BME280;21812;55.536;37.664;2022-07-04T12:59:41;99544.97;;;33.35;28.43
35694;BME280;21812;55.536;37.664;2022-07-04T13:02:08;99548.44;;;33.97;27.83
35694;BME280;21812;55.536;37.664;2022-07-04T13:04:37;99545.06;;;34.60;26.35
35694;BME280;21812;55.536;37.664;2022-07-04T13:07:15;99532.88;;;34.65;25.76
35694;BME280;21812;55.536;37.664;2022-07-04T13:09:45;99556.91;;;34.89;26.38
35694;BME280;21812;55.536;37.664;2022-07-04T13:12:12;99552.56;;;35.39;25.86
35694;BME280;21812;55.536;37.664;2022-07-04T13:14:58;99545.28;;;35.51;24.67
35694;BME280;21812;55.536;37.664;2022-07-04T13:17:24;99537.56;;;35.60;26.39
35694;BME280;21812;55.536;37.664;2022-07-04T13:19:51;99529.59;;;35.74;24.71
35694;BME280;21812;55.536;37.664;2022-07-04T13:22:22;99493.63;;;34.47;25.85
35694;BME280;21812;55.536;37.664;2022-07-04T13:24:49;99531.66;;;34.06;27.41
35694;BME280;21812;55.536;37.664;2022-07-04T13:27:16;99531.19;;;34.44;26.77